Time;durP1;ratioP1;P1;durP2;ratioP2;P2;SDS_P1;SDS_P2;PMS_P1;PMS_P2;Temp;Humidity;BMP_temperature;BMP_pressure;BME280_temperature;BME280_humidity;BME280_pressure;Samples;Min_cycle;Max_cycle;Signal;HPM_P1;HPM_P2
2022/01/08 00:00:14;;;;;;;8.82;6.43;;;;;;;-0.18;100.00;96402.00;5001018;28;20041;-66
2022/01/08 00:02:40;;;;;;;8.73;5.75;;;;;;;0.05;100.00;96392.03;5003877;28;20422;-66
2022/01/08 00:05:06;;;;;;;10.63;6.18;;;;;;;-0.04;100.00;96386.59;4996709;28;20103;-66
2022/01/08 00:07:32;;;;;;;11.90;6.50;;;;;;;-0.18;100.00;96371.56;5003079;28;20053;-66
2022/01/08 00:09:57;;;;;;;13.73;6.00;;;;;;;-0.42;100.00;96375.34;5017643;28;20107;-66
2022/01/08 00:12:24;;;;;;;10.40;6.50;;;;;;;-0.66;100.00;96371.00;4990280;28;20426;-66
2022/01/08 00:14:49;;;;;;;10.43;6.47;;;;;;;-0.84;100.00;96358.50;4982066;28;20046;-66
2022/01/08 00:17:15;;;;;;;9.82;6.07;;;;;;;-0.88;100.00;96363.69;4979133;28;20097;-66
2022/01/08 00:19:40;;;;;;;8.10;6.05;;;;;;;-0.81;100.00;96355.19;4999655;28;20100;-67
2022/01/08 00:22:06;;;;;;;9.55;6.45;;;;;;;-0.74;100.00;96350.19;4991107;28;20046;-67
2022/01/08 00:24:31;;;;;;;8.82;6.03;;;;;;;-0.88;100.00;96347.56;4998996;28;20038;-67
2022/01/08 00:26:57;;;;;;;11.45;7.25;;;;;;;-0.89;100.00;96337.88;5005425;28;20632;-67
2022/01/08 00:29:22;;;;;;;14.25;7.00;;;;;;;-0.95;100.00;96331.03;5000690;28;20457;-66
2022/01/08 00:31:48;;;;;;;9.93;6.75;;;;;;;-1.02;100.00;96333.34;5004056;28;20490;-67
2022/01/08 00:34:13;;;;;;;11.50;7.65;;;;;;;-1.02;100.00;96323.38;5011866;28;20053;-67
2022/01/08 00:36:39;;;;;;;12.07;7.40;;;;;;;-1.10;100.00;96324.06;4995273;28;20042;-67
2022/01/08 00:39:04;;;;;;;10.88;7.85;;;;;;;-1.18;100.00;96308.66;4992098;28;20130;-65
2022/01/08 00:41:30;;;;;;;11.32;7.25;;;;;;;-1.26;100.00;96309.34;5002713;28;20065;-67
2022/01/08 00:43:56;;;;;;;10.90;7.40;;;;;;;-1.40;100.00;96310.16;5011415;28;20109;-67
2022/01/08 00:46:21;;;;;;;11.50;7.00;;;;;;;-1.45;100.00;96307.56;5000355;28;20512;-67
2022/01/08 00:48:47;;;;;;;12.38;7.63;;;;;;;-1.47;100.00;96298.22;5000306;28;20054;-67
2022/01/08 00:51:12;;;;;;;12.07;7.68;;;;;;;-1.44;100.00;96284.19;4988468;28;20042;-65
2022/01/08 00:53:38;;;;;;;10.35;7.18;;;;;;;-1.26;100.00;96288.66;5001000;28;20180;-67
2022/01/08 00:56:04;;;;;;;16.30;8.63;;;;;;;-1.25;100.00;96284.88;4997924;28;20038;-67
2022/01/08 00:58:29;;;;;;;12.93;8.80;;;;;;;-1.28;100.00;96273.94;4991803;28;20080;-67
2022/01/08 01:00:55;;;;;;;11.20;8.18;;;;;;;-1.31;100.00;96278.03;4999537;28;20038;-67
2022/01/08 01:03:20;;;;;;;12.20;8.23;;;;;;;-1.29;100.00;96272.34;5004444;28;20050;-67
2022/01/08 01:05:46;;;;;;;11.68;8.48;;;;;;;-1.23;100.00;96263.06;5002542;28;20046;-66
2022/01/08 01:08:11;;;;;;;12.30;7.60;;;;;;;-1.19;100.00;96264.88;5006451;28;20149;-66
2022/01/08 01:10:37;;;;;;;12.23;7.90;;;;;;;-1.23;100.00;96258.50;5001889;28;20564;-67
2022/01/08 01:13:03;;;;;;;11.82;8.07;;;;;;;-1.26;100.00;96253.75;4998729;28;20046;-67
2022/01/08 01:15:29;;;;;;;11.63;8.30;;;;;;;-1.23;100.00;96244.28;4998930;28;20073;-66
2022/01/08 01:17:55;;;;;;;13.48;8.35;;;;;;;-1.22;100.00;96243.19;4992874;28;20055;-67
2022/01/08 01:20:21;;;;;;;13.43;8.15;;;;;;;-1.14;100.00;96228.22;4997156;28;20466;-65
2022/01/08 01:25:24;;;;;;;10.82;7.60;;;;;;;-1.14;100.00;96238.97;4989074;28;20188;-68
2022/01/08 01:28:38;;;;;;;11.25;7.88;;;;;;;-0.96;100.00;96244.19;5001334;28;20046;-67
2022/01/08 01:41:35;;;;;;;12.15;8.43;;;;;;;-0.92;100.00;96217.50;4992447;28;20042;-66
2022/01/08 01:49:18;;;;;;;11.68;8.35;;;;;;;-0.90;100.00;96211.81;4995303;28;20505;-67
2022/01/08 01:51:44;;;;;;;11.13;8.45;;;;;;;-1.24;100.00;96194.28;4997504;28;20034;-67
2022/01/08 01:54:10;;;;;;;11.70;8.68;;;;;;;-1.31;100.00;96192.03;4988629;28;20054;-67
2022/01/08 01:56:36;;;;;;;14.68;9.40;;;;;;;-1.34;100.00;96187.28;5014378;28;20046;-67
2022/01/08 01:59:02;;;;;;;15.35;9.85;;;;;;;-1.38;100.00;96187.06;5004912;28;20411;-65
2022/01/08 02:01:27;;;;;;;14.05;9.70;;;;;;;-1.34;100.00;96187.28;5002745;28;20056;-66
2022/01/08 02:03:53;;;;;;;14.80;9.52;;;;;;;-1.21;100.00;96189.13;5000172;28;20092;-66
2022/01/08 02:06:19;;;;;;;12.77;8.48;;;;;;;-1.13;100.00;96182.25;4999622;28;20065;-66
2022/01/08 02:08:45;;;;;;;14.63;9.25;;;;;;;-1.04;100.00;96172.34;5000173;28;20038;-66
2022/01/08 02:11:11;;;;;;;14.02;8.57;;;;;;;-1.00;100.00;96177.91;4984280;28;20034;-66
2022/01/08 02:13:37;;;;;;;13.93;8.63;;;;;;;-0.96;100.00;96176.97;4995556;28;20039;-66
2022/01/08 02:16:05;;;;;;;12.73;8.82;;;;;;;-0.84;100.00;96178.34;4993549;28;20046;-66
2022/01/08 02:18:31;;;;;;;14.43;8.48;;;;;;;-0.75;100.00;96183.78;4987565;28;20038;-67
2022/01/08 02:20:59;;;;;;;16.42;9.00;;;;;;;-0.61;100.00;96184.53;4984474;28;20042;-68
2022/01/08 02:23:25;;;;;;;11.02;8.43;;;;;;;-0.52;100.00;96180.00;4994907;28;20062;-68
2022/01/08 02:25:50;;;;;;;11.65;8.25;;;;;;;-0.65;100.00;96178.97;4997124;28;20049;-68
2022/01/08 02:28:17;;;;;;;11.88;7.85;;;;;;;-0.62;100.00;96167.56;5015509;28;20081;-68
2022/01/08 02:30:42;;;;;;;8.82;6.80;;;;;;;-0.66;100.00;96163.91;5016510;28;20060;-66
2022/01/08 02:33:08;;;;;;;12.23;7.68;;;;;;;-0.53;100.00;96175.69;5010184;28;20042;-68
2022/01/08 02:35:34;;;;;;;11.02;7.50;;;;;;;-0.39;100.00;96189.09;5004305;28;20050;-68
2022/01/08 02:37:59;;;;;;;11.02;7.70;;;;;;;-0.26;100.00;96184.72;4980655;28;20046;-68
2022/01/08 02:40:25;;;;;;;11.02;7.07;;;;;;;-0.25;100.00;96200.56;4989244;28;20047;-67
2022/01/08 02:43:01;;;;;;;7.72;4.53;;;;;;;-0.18;100.00;96192.03;4984594;28;20065;-68
2022/01/08 02:45:27;;;;;;;3.72;2.17;;;;;;;0.13;100.00;96183.13;4980002;28;20049;-66
2022/01/08 02:47:54;;;;;;;2.25;1.27;;;;;;;0.32;100.00;96199.81;4985808;28;20100;-68
2022/01/08 02:50:20;;;;;;;4.68;1.40;;;;;;;0.42;100.00;96197.97;4980237;28;20045;-66
2022/01/08 02:52:47;;;;;;;4.18;1.13;;;;;;;0.57;100.00;96203.69;4996625;28;20035;-66
2022/01/08 02:55:14;;;;;;;1.88;1.02;;;;;;;0.46;100.00;96191.63;4994078;28;20394;-67
2022/01/08 02:57:40;;;;;;;1.75;1.23;;;;;;;0.53;100.00;96193.88;5019800;28;20060;-68
2022/01/08 03:00:08;;;;;;;1.48;1.00;;;;;;;0.54;100.00;96184.66;4999154;28;20052;-67
2022/01/08 03:02:39;;;;;;;1.20;0.90;;;;;;;0.55;100.00;96172.78;5003166;28;20145;-68
2022/01/08 03:05:07;;;;;;;1.48;1.10;;;;;;;0.53;100.00;96183.88;4999479;28;20534;-67
2022/01/08 03:07:33;;;;;;;1.33;1.20;;;;;;;0.62;100.00;96180.41;5001793;28;20143;-67
2022/01/08 03:09:58;;;;;;;4.13;1.10;;;;;;;0.61;100.00;96176.91;4992008;28;20046;-68
2022/01/08 03:12:27;;;;;;;4.35;1.20;;;;;;;0.67;100.00;96174.88;4981223;28;20124;-68
2022/01/08 03:14:55;;;;;;;2.42;1.30;;;;;;;0.62;100.00;96172.31;5012907;28;20076;-67
2022/01/08 03:17:20;;;;;;;1.63;0.90;;;;;;;0.59;100.00;96175.66;5017710;28;20395;-67
2022/01/08 03:19:46;;;;;;;2.33;1.27;;;;;;;0.55;100.00;96175.47;5006773;28;20081;-67
2022/01/08 03:22:12;;;;;;;1.20;1.10;;;;;;;0.55;100.00;96178.97;4997864;28;20124;-68
2022/01/08 03:24:39;;;;;;;2.10;0.90;;;;;;;0.65;100.00;96175.19;4994848;28;20056;-66
2022/01/08 03:27:05;;;;;;;1.30;1.20;;;;;;;0.42;100.00;96171.03;4983032;28;20081;-65
2022/01/08 03:29:31;;;;;;;2.22;1.55;;;;;;;0.31;100.00;96171.31;5001228;28;20447;-68
2022/01/08 03:31:57;;;;;;;2.22;1.08;;;;;;;0.29;100.00;96159.25;4995737;28;20132;-65
2022/01/08 03:34:22;;;;;;;2.05;1.20;;;;;;;0.20;100.00;96159.25;4997795;28;20584;-65
2022/01/08 03:36:47;;;;;;;1.13;1.02;;;;;;;0.16;100.00;96153.69;5005531;28;20048;-67
2022/01/08 03:39:13;;;;;;;3.35;1.30;;;;;;;0.07;100.00;96146.66;4984317;28;20042;-67
2022/01/08 03:41:39;;;;;;;2.35;1.10;;;;;;;0.11;100.00;96153.81;4986557;28;20037;-67
2022/01/08 03:44:05;;;;;;;1.42;1.33;;;;;;;0.21;100.00;96151.94;4998045;28;20049;-66
2022/01/08 03:46:34;;;;;;;2.92;1.30;;;;;;;0.09;100.00;96158.75;5003181;28;20046;-68
2022/01/08 03:51:29;;;;;;;1.50;1.30;;;;;;;-0.20;100.00;96170.00;4999476;28;20108;-67
2022/01/08 03:53:56;;;;;;;1.67;1.52;;;;;;;-0.17;100.00;96155.16;4996170;28;20124;-67
2022/01/08 03:56:21;;;;;;;1.75;1.40;;;;;;;-0.09;100.00;96160.56;4977351;28;20042;-67
2022/01/08 03:58:47;;;;;;;1.92;1.73;;;;;;;-0.01;100.00;96151.72;4983779;28;20046;-67
2022/01/08 04:01:12;;;;;;;2.75;1.55;;;;;;;0.01;100.00;96148.72;4979241;28;20431;-67
2022/01/08 04:03:37;;;;;;;2.25;1.50;;;;;;;-0.02;100.00;96152.84;4984211;28;20104;-67
2022/01/08 04:06:04;;;;;;;2.78;1.67;;;;;;;-0.01;100.00;96143.63;4981635;28;20042;-67
2022/01/08 04:08:29;;;;;;;1.50;1.40;;;;;;;-0.01;100.00;96149.03;4978791;28;20097;-66
2022/01/08 04:10:55;;;;;;;3.42;1.45;;;;;;;0.03;100.00;96146.50;5003387;28;20066;-67
2022/01/08 04:13:25;;;;;;;1.15;1.05;;;;;;;0.01;100.00;96145.25;4985522;28;20093;-66
2022/01/08 04:15:54;;;;;;;;;;;;;;;0.09;100.00;96147.97;4984061;28;20065;-67
2022/01/08 04:18:20;;;;;;;4.47;1.30;;;;;;;0.15;100.00;96148.59;4997920;28;19927;-67
2022/01/08 04:23:32;;;;;;;2.85;1.10;;;;;;;0.22;100.00;96145.44;4982639;28;20065;-65
2022/01/08 04:25:57;;;;;;;2.20;1.63;;;;;;;0.20;100.00;96143.09;5006078;28;20084;-65
2022/01/08 04:28:23;;;;;;;2.10;1.23;;;;;;;0.24;100.00;96145.94;4993655;28;20137;-67
2022/01/08 04:30:48;;;;;;;2.05;1.38;;;;;;;0.23;100.00;96150.50;4991388;28;20042;-68
2022/01/08 04:33:14;;;;;;;1.63;1.40;;;;;;;0.20;100.00;96148.47;4998128;28;20048;-68
2022/01/08 04:35:40;;;;;;;1.10;1.00;;;;;;;0.29;100.00;96154.66;5002193;28;20038;-66
2022/01/08 04:38:06;;;;;;;2.10;1.27;;;;;;;0.29;100.00;96149.28;4998034;28;20048;-68
2022/01/08 04:40:32;;;;;;;2.10;1.40;;;;;;;0.29;100.00;96151.97;5002509;28;20069;-68
2022/01/08 04:42:59;;;;;;;1.77;1.35;;;;;;;0.45;100.00;96146.94;5001144;28;20052;-67
2022/01/08 04:45:28;;;;;;;2.90;1.55;;;;;;;0.29;100.00;96145.78;4996332;28;20732;-67
2022/01/08 04:47:54;;;;;;;3.70;1.45;;;;;;;0.44;100.00;96142.66;5002457;28;20502;-65
2022/01/08 04:50:19;;;;;;;1.33;1.23;;;;;;;0.41;100.00;96142.47;4997923;28;20042;-65
2022/01/08 04:52:45;;;;;;;2.20;1.33;;;;;;;0.43;100.00;96137.56;5002563;28;20092;-67
2022/01/08 04:55:11;;;;;;;2.67;1.23;;;;;;;0.39;100.00;96142.78;4995575;28;20057;-68
2022/01/08 04:57:36;;;;;;;4.57;1.45;;;;;;;0.35;100.00;96136.44;5013829;28;20080;-67
2022/01/08 05:00:03;;;;;;;2.35;1.80;;;;;;;0.40;100.00;96149.78;5003339;28;20069;-67
2022/01/08 05:02:29;;;;;;;2.33;1.58;;;;;;;0.41;100.00;96137.88;5001506;28;20038;-67
2022/01/08 05:04:54;;;;;;;5.28;1.60;;;;;;;0.45;100.00;96133.47;5000590;28;20160;-67
2022/01/08 05:07:20;;;;;;;3.63;1.60;;;;;;;0.41;100.00;96143.28;4988683;28;20049;-67
2022/01/08 05:09:45;;;;;;;3.53;1.90;;;;;;;0.45;100.00;96148.81;5000277;28;20050;-64
2022/01/08 05:12:11;;;;;;;2.50;1.70;;;;;;;0.48;100.00;96143.59;4988279;28;20048;-66
2022/01/08 05:14:36;;;;;;;2.20;1.77;;;;;;;0.51;100.00;96158.34;4993424;28;20045;-66
2022/01/08 05:17:02;;;;;;;5.25;1.83;;;;;;;0.46;100.00;96159.28;4999299;28;20483;-64
2022/01/08 05:19:43;;;;;;;2.63;1.85;;;;;;;0.51;100.00;96161.06;4983885;28;20038;-65
2022/01/08 05:22:17;;;;;;;3.10;1.80;;;;;;;0.57;100.00;96160.56;4997063;28;20038;-68
2022/01/08 05:24:42;;;;;;;3.53;1.67;;;;;;;0.59;100.00;96167.56;5015573;28;20046;-68
2022/01/08 05:27:12;;;;;;;2.08;1.73;;;;;;;0.69;100.00;96169.97;5003275;28;20064;-67
2022/01/08 05:29:38;;;;;;;3.58;1.88;;;;;;;0.78;100.00;96172.66;5004719;28;20045;-66
2022/01/08 05:32:04;;;;;;;2.35;1.90;;;;;;;0.88;100.00;96170.44;4984337;28;20225;-64
2022/01/08 05:34:29;;;;;;;4.03;2.35;;;;;;;0.92;100.00;96184.88;4985993;28;20113;-67
2022/01/08 05:36:55;;;;;;;6.38;2.92;;;;;;;1.01;100.00;96178.69;4996858;28;20050;-66
2022/01/08 05:39:20;;;;;;;2.70;1.02;;;;;;;1.04;100.00;96186.13;4981537;28;20387;-66
2022/01/08 05:41:46;;;;;;;1.65;1.20;;;;;;;1.09;100.00;96194.88;4991362;28;20045;-66
2022/01/08 05:44:11;;;;;;;2.38;1.35;;;;;;;1.01;100.00;96190.28;5002369;28;20042;-65
2022/01/08 05:46:39;;;;;;;3.55;1.38;;;;;;;0.82;100.00;96195.97;4999739;28;20091;-66
2022/01/08 05:49:05;;;;;;;2.00;1.80;;;;;;;0.76;100.00;96203.41;4996830;28;20065;-67
2022/01/08 05:51:30;;;;;;;1.73;1.30;;;;;;;0.77;100.00;96196.13;4993396;28;20041;-66
2022/01/08 05:53:56;;;;;;;1.60;1.23;;;;;;;0.79;100.00;96201.19;5000669;28;20046;-65
2022/01/08 05:56:21;;;;;;;1.75;1.58;;;;;;;0.79;100.00;96201.97;5008582;28;20709;-68
2022/01/08 05:58:47;;;;;;;1.63;1.42;;;;;;;0.80;100.00;96203.56;4998283;28;20046;-68
2022/01/08 06:01:12;;;;;;;2.40;1.10;;;;;;;0.90;100.00;96222.16;4989888;28;20541;-68
2022/01/08 06:03:38;;;;;;;1.58;1.13;;;;;;;0.98;100.00;96217.88;4984755;28;20443;-67
2022/01/08 06:06:03;;;;;;;1.50;1.30;;;;;;;1.02;100.00;96226.91;4977577;28;20519;-65
2022/01/08 06:08:29;;;;;;;1.52;1.20;;;;;;;1.01;100.00;96232.63;4998220;28;20085;-64
2022/01/08 06:10:55;;;;;;;1.67;1.20;;;;;;;0.89;100.00;96225.94;5000548;28;20132;-64
2022/01/08 06:13:20;;;;;;;3.70;1.50;;;;;;;0.81;100.00;96232.13;4996407;28;20078;-65
2022/01/08 06:15:46;;;;;;;1.52;1.13;;;;;;;0.80;100.00;96235.94;4999527;28;20038;-63
2022/01/08 06:18:11;;;;;;;2.97;1.20;;;;;;;0.79;100.00;96239.72;4987995;28;20471;-63
2022/01/08 06:20:36;;;;;;;1.65;1.38;;;;;;;0.76;100.00;96245.75;5005048;28;20046;-65
2022/01/08 06:23:02;;;;;;;2.17;1.35;;;;;;;0.76;100.00;96248.47;5002016;28;20398;-67
2022/01/08 06:25:29;;;;;;;2.03;1.50;;;;;;;0.72;100.00;96263.66;4995045;28;20057;-63
2022/01/08 06:27:55;;;;;;;2.63;1.73;;;;;;;0.71;100.00;96256.69;4988588;28;20038;-64
2022/01/08 06:30:20;;;;;;;1.40;1.30;;;;;;;0.75;100.00;96257.63;4996114;28;20056;-64
2022/01/08 06:32:45;;;;;;;1.60;1.50;;;;;;;0.73;100.00;96251.78;5001336;28;20046;-64
2022/01/08 06:35:11;;;;;;;1.58;1.40;;;;;;;0.75;100.00;96273.81;4996958;28;20370;-65
2022/01/08 06:37:36;;;;;;;2.05;1.38;;;;;;;0.76;100.00;96283.50;5000901;28;20049;-64
2022/01/08 06:40:02;;;;;;;2.47;1.10;;;;;;;0.82;100.00;96279.53;5014905;28;20045;-64
2022/01/08 06:42:28;;;;;;;1.48;1.00;;;;;;;0.85;100.00;96283.53;4992118;28;20053;-64
2022/01/08 06:44:53;;;;;;;1.50;1.13;;;;;;;0.90;100.00;96305.75;4993242;28;20076;-65
2022/01/08 06:47:18;;;;;;;1.10;1.00;;;;;;;0.86;100.00;96295.88;5010382;28;20088;-64
2022/01/08 06:49:44;;;;;;;1.42;1.13;;;;;;;0.92;100.00;96308.91;4997018;28;20062;-64
2022/01/08 06:52:09;;;;;;;1.48;1.30;;;;;;;0.86;100.00;96315.53;4990565;28;20041;-64
2022/01/08 06:54:35;;;;;;;1.10;1.00;;;;;;;0.95;100.00;96305.59;5001273;28;20061;-65
2022/01/08 06:57:00;;;;;;;1.20;1.10;;;;;;;0.88;100.00;96316.06;4994796;28;20041;-65
2022/01/08 06:59:25;;;;;;;2.67;1.27;;;;;;;0.91;100.00;96328.09;4994787;28;20483;-65
2022/01/08 07:01:51;;;;;;;1.20;1.10;;;;;;;0.94;100.00;96336.34;5004490;28;20030;-65
2022/01/08 07:04:16;;;;;;;2.20;1.35;;;;;;;0.88;100.00;96356.50;4999430;28;20048;-64
2022/01/08 07:06:42;;;;;;;1.30;1.20;;;;;;;0.91;100.00;96352.38;5019275;28;20045;-64
2022/01/08 07:09:07;;;;;;;1.23;0.98;;;;;;;0.87;100.00;96360.28;4997262;28;20062;-64
2022/01/08 07:11:33;;;;;;;1.35;1.10;;;;;;;0.88;100.00;96369.97;4995590;28;20053;-62
2022/01/08 07:13:58;;;;;;;1.52;1.33;;;;;;;0.83;100.00;96377.38;4996557;28;20133;-62
2022/01/08 07:16:23;;;;;;;2.00;1.40;;;;;;;0.85;100.00;96394.84;5013889;28;20061;-63
2022/01/08 07:18:49;;;;;;;1.60;1.30;;;;;;;0.84;100.00;96398.66;5003965;28;20077;-63
2022/01/08 07:21:14;;;;;;;1.55;1.40;;;;;;;0.85;100.00;96405.66;4997880;28;20473;-63
2022/01/08 07:23:40;;;;;;;1.40;1.30;;;;;;;0.80;100.00;96410.38;5000995;28;20054;-64
2022/01/08 07:26:05;;;;;;;1.30;1.20;;;;;;;0.71;100.00;96416.50;4995545;28;20037;-64
2022/01/08 07:28:30;;;;;;;1.42;1.30;;;;;;;0.67;100.00;96422.84;4994958;28;20050;-64
2022/01/08 07:30:56;;;;;;;1.30;1.20;;;;;;;0.63;100.00;96424.56;4995716;28;20046;-64
2022/01/08 07:33:21;;;;;;;2.03;1.25;;;;;;;0.74;100.00;96437.47;4997057;28;20531;-64
2022/01/08 07:35:47;;;;;;;2.10;1.70;;;;;;;0.70;100.00;96457.25;4997407;28;20042;-64
2022/01/08 07:38:12;;;;;;;1.30;1.20;;;;;;;0.69;100.00;96459.16;4996074;28;20061;-64
2022/01/08 07:40:37;;;;;;;1.38;1.05;;;;;;;0.76;100.00;96458.72;4993524;28;20048;-64
2022/01/08 07:43:04;;;;;;;1.20;1.10;;;;;;;0.82;100.00;96457.47;5001508;28;20038;-64
2022/01/08 07:45:29;;;;;;;2.50;1.23;;;;;;;0.86;100.00;96485.41;5007154;28;20129;-64
2022/01/08 07:47:55;;;;;;;1.30;1.20;;;;;;;0.82;100.00;96470.97;5003948;28;20050;-64
2022/01/08 07:50:20;;;;;;;0.93;0.90;;;;;;;0.80;100.00;96480.47;4998647;28;20045;-64
2022/01/08 07:52:45;;;;;;;1.17;1.08;;;;;;;0.77;100.00;96495.34;5003130;28;20037;-64
2022/01/08 07:55:12;;;;;;;1.20;1.10;;;;;;;0.78;100.00;96496.97;4998281;28;20052;-64
2022/01/08 07:57:38;;;;;;;1.45;1.10;;;;;;;0.70;100.00;96501.19;5002990;28;20565;-64
2022/01/08 08:00:05;;;;;;;2.33;1.20;;;;;;;0.52;100.00;96512.94;4999036;28;20128;-64
2022/01/08 08:02:30;;;;;;;2.47;1.13;;;;;;;0.47;100.00;96513.06;5002612;28;20069;-64
2022/01/08 08:04:56;;;;;;;2.20;1.00;;;;;;;0.49;100.00;96516.28;5004161;28;20104;-64
2022/01/08 08:07:41;;;;;;;1.15;1.05;;;;;;;0.51;100.00;96535.63;4998047;28;20456;-64
2022/01/08 08:10:08;;;;;;;1.42;1.00;;;;;;;0.61;100.00;96537.25;4994901;28;20509;-63
2022/01/08 08:12:34;;;;;;;1.30;1.20;;;;;;;0.68;100.00;96541.13;5002818;28;20042;-62
2022/01/08 08:14:59;;;;;;;1.10;1.00;;;;;;;0.80;100.00;96542.50;5007860;28;20129;-62
2022/01/08 08:17:25;;;;;;;2.35;1.38;;;;;;;0.83;100.00;96548.06;4997427;28;20042;-64
2022/01/08 08:19:50;;;;;;;2.25;1.30;;;;;;;0.95;100.00;96553.69;5003586;28;20046;-63
2022/01/08 08:22:15;;;;;;;2.45;1.40;;;;;;;0.95;100.00;96550.19;4996023;28;20038;-64
2022/01/08 08:24:41;;;;;;;4.38;2.15;;;;;;;0.92;100.00;96553.53;5015988;28;20083;-61
2022/01/08 08:27:07;;;;;;;3.30;1.63;;;;;;;0.97;100.00;96561.47;4997683;28;20245;-63
2022/01/08 08:29:33;;;;;;;2.42;1.30;;;;;;;0.91;100.00;96573.50;5000532;28;20042;-64
2022/01/08 08:31:58;;;;;;;3.35;1.95;;;;;;;1.00;100.00;96566.25;4999644;28;20099;-62
2022/01/08 08:34:23;;;;;;;2.78;1.42;;;;;;;1.11;100.00;96572.19;4991461;28;20043;-64
2022/01/08 08:36:49;;;;;;;2.53;1.70;;;;;;;1.21;100.00;96573.84;4997367;28;20049;-63
2022/01/08 08:39:14;;;;;;;1.50;1.30;;;;;;;1.12;100.00;96569.19;4994083;28;20042;-64
2022/01/08 08:41:40;;;;;;;2.03;1.30;;;;;;;1.07;100.00;96561.22;5000156;28;20034;-63
2022/01/08 08:44:05;;;;;;;1.27;1.17;;;;;;;0.94;100.00;96578.28;4996200;28;20104;-64
2022/01/08 08:46:30;;;;;;;1.73;1.17;;;;;;;1.01;100.00;96572.44;5007210;28;20048;-64
2022/01/08 08:48:56;;;;;;;1.13;1.02;;;;;;;1.03;100.00;96594.53;5013313;28;20048;-64
2022/01/08 08:51:21;;;;;;;1.80;1.30;;;;;;;1.24;100.00;96592.91;5001206;28;20523;-63
2022/01/08 08:53:47;;;;;;;3.63;1.55;;;;;;;1.37;100.00;96591.22;5000342;28;20058;-64
2022/01/08 08:56:12;;;;;;;1.20;1.10;;;;;;;1.84;100.00;96598.91;4994680;28;20057;-65
2022/01/08 08:58:37;;;;;;;1.67;1.17;;;;;;;2.38;100.00;96596.81;4998398;28;20125;-65
2022/01/08 09:01:03;;;;;;;3.33;1.90;;;;;;;2.48;100.00;96596.50;4991883;28;20038;-63
2022/01/08 09:03:29;;;;;;;2.92;1.05;;;;;;;2.87;100.00;96602.09;4980910;28;20038;-65
2022/01/08 09:05:54;;;;;;;1.23;1.08;;;;;;;3.15;100.00;96610.66;4986579;28;20042;-65
2022/01/08 09:08:19;;;;;;;1.42;0.88;;;;;;;2.98;100.00;96606.06;4984120;28;20042;-65
2022/01/08 09:10:45;;;;;;;1.80;1.08;;;;;;;3.14;99.52;96602.88;4982266;28;20034;-64
2022/01/08 09:13:10;;;;;;;1.30;0.88;;;;;;;2.87;98.96;96607.50;4979574;28;20045;-65
2022/01/08 09:15:41;;;;;;;2.65;1.10;;;;;;;2.80;100.00;96618.00;4992817;28;20042;-64
2022/01/08 09:18:07;;;;;;;1.15;1.05;;;;;;;2.86;100.00;96619.41;4997233;28;20364;-64
2022/01/08 09:20:33;;;;;;;2.13;1.15;;;;;;;2.51;100.00;96626.72;5019114;28;20064;-64
2022/01/08 09:22:58;;;;;;;1.33;1.15;;;;;;;3.01;100.00;96623.56;5002999;28;20649;-67
2022/01/08 09:25:24;;;;;;;1.20;1.00;;;;;;;3.26;99.32;96619.25;4996368;28;20136;-64
2022/01/08 09:27:49;;;;;;;0.80;0.80;;;;;;;3.72;93.71;96635.88;5000252;28;20046;-65
2022/01/08 09:30:15;;;;;;;1.10;0.82;;;;;;;3.25;97.15;96634.69;5004237;28;20043;-64
2022/01/08 09:32:44;;;;;;;1.30;0.88;;;;;;;3.74;94.97;96636.34;5000787;28;20140;-65
2022/01/08 09:35:11;;;;;;;2.15;0.80;;;;;;;3.61;92.69;96636.19;4996635;28;20042;-65
2022/01/08 09:37:39;;;;;;;3.00;0.93;;;;;;;3.79;92.33;96650.50;5002526;28;20129;-65
2022/01/08 09:40:07;;;;;;;0.98;0.90;;;;;;;4.48;91.20;96662.16;4996904;28;20149;-65
2022/01/08 09:42:33;;;;;;;2.22;0.98;;;;;;;4.92;83.68;96651.81;5000351;28;20045;-66
2022/01/08 09:44:58;;;;;;;7.32;1.98;;;;;;;5.53;80.29;96650.53;5021345;28;20034;-65
2022/01/08 09:47:24;;;;;;;2.15;1.02;;;;;;;5.32;77.81;96655.97;4984193;28;20066;-64
2022/01/08 09:49:50;;;;;;;2.33;0.80;;;;;;;4.81;80.17;96660.69;4981905;28;20047;-64
2022/01/08 09:52:15;;;;;;;1.42;0.85;;;;;;;5.08;80.43;96656.66;4977457;28;20100;-64
2022/01/08 09:54:41;;;;;;;4.38;0.80;;;;;;;4.68;80.76;96663.34;4981952;28;20351;-65
2022/01/08 09:57:06;;;;;;;0.80;0.80;;;;;;;4.50;81.38;96643.66;4977750;28;20038;-65
2022/01/08 09:59:33;;;;;;;2.92;1.08;;;;;;;4.12;82.35;96666.16;4992866;28;20100;-65
2022/01/08 10:02:00;;;;;;;2.50;1.77;;;;;;;4.36;80.67;96648.53;4999297;28;20069;-66
2022/01/08 10:04:28;;;;;;;1.25;0.80;;;;;;;4.25;82.31;96650.81;4996816;28;20034;-65
2022/01/08 10:07:22;;;;;;;3.50;1.00;;;;;;;4.80;80.59;96646.31;4998464;28;20576;-64
2022/01/08 10:10:15;;;;;;;3.40;1.00;;;;;;;4.67;81.49;96647.38;4982167;28;20050;-65
2022/01/08 10:12:54;;;;;;;1.65;1.13;;;;;;;4.46;81.44;96647.34;4979676;28;20499;-65
2022/01/08 10:18:27;;;;;;;2.50;0.98;;;;;;;3.82;83.57;96649.84;4975976;28;20043;-64
2022/01/08 10:20:55;;;;;;;2.00;1.10;;;;;;;4.11;84.46;96658.38;4980730;28;20046;-66
2022/01/08 10:23:21;;;;;;;1.05;0.85;;;;;;;4.25;83.59;96658.13;5000973;28;20384;-65
2022/01/08 10:26:11;;;;;;;1.42;0.98;;;;;;;4.33;81.79;96649.16;5000268;28;20418;-64
2022/01/08 10:28:38;;;;;;;1.67;1.30;;;;;;;4.32;81.78;96628.59;4995459;28;20144;-65
2022/01/08 10:31:17;;;;;;;2.53;0.98;;;;;;;4.80;78.03;96643.59;5001926;28;20049;-65
2022/01/08 10:33:46;;;;;;;3.40;1.00;;;;;;;4.96;78.22;96644.59;5003705;28;20502;-64
2022/01/08 10:36:12;;;;;;;1.73;1.00;;;;;;;4.96;76.96;96635.69;4999165;28;20048;-65
2022/01/08 10:38:38;;;;;;;1.80;1.13;;;;;;;5.61;74.35;96635.25;5004321;28;20052;-65
2022/01/08 10:41:12;;;;;;;3.08;1.20;;;;;;;5.26;76.07;96622.81;5000033;28;20052;-65
2022/01/08 10:43:38;;;;;;;1.65;0.90;;;;;;;5.09;74.74;96636.53;5000199;28;20064;-65
2022/01/08 10:46:09;;;;;;;5.38;1.10;;;;;;;4.76;76.37;96634.56;4995202;28;20136;-65
2022/01/08 10:48:35;;;;;;;3.63;1.02;;;;;;;4.86;75.83;96636.06;5019112;28;20041;-65
2022/01/08 10:51:21;;;;;;;1.70;1.05;;;;;;;4.96;74.69;96632.97;5019746;28;20061;-66
2022/01/08 10:54:08;;;;;;;4.68;1.27;;;;;;;4.79;75.36;96636.63;5014537;28;20054;-66
2022/01/08 10:56:49;;;;;;;3.50;2.05;;;;;;;4.26;77.89;96629.91;5002703;28;20422;-65
2022/01/08 10:59:23;;;;;;;6.78;1.38;;;;;;;4.62;76.34;96632.09;4987235;28;20058;-65
2022/01/08 11:01:52;;;;;;;1.92;1.15;;;;;;;5.11;75.80;96637.00;5000089;28;20050;-65
2022/01/08 11:04:36;;;;;;;2.65;1.10;;;;;;;4.70;77.31;96635.84;4993172;28;20069;-64
2022/01/08 11:07:10;;;;;;;3.33;2.20;;;;;;;4.93;75.19;96626.28;4984284;28;20506;-65
2022/01/08 11:09:38;;;;;;;1.63;0.93;;;;;;;4.88;75.09;96620.25;4989772;28;20115;-65
2022/01/08 11:12:06;;;;;;;2.75;1.30;;;;;;;4.46;76.49;96629.16;4987613;28;20052;-65
2022/01/08 11:17:25;;;;;;;3.30;1.33;;;;;;;4.62;76.27;96632.09;4998375;28;20093;-65
2022/01/08 11:19:58;;;;;;;3.22;1.20;;;;;;;4.49;76.85;96625.00;5004212;28;20060;-64
2022/01/08 11:22:27;;;;;;;4.63;1.35;;;;;;;4.01;77.95;96608.00;4998469;28;20595;-63
2022/01/08 11:25:10;;;;;;;1.75;1.00;;;;;;;3.48;78.37;96609.34;5004148;28;20120;-66
2022/01/08 11:28:00;;;;;;;4.13;1.17;;;;;;;3.50;78.03;96623.34;5001358;28;20128;-66
2022/01/08 11:30:32;;;;;;;1.48;1.33;;;;;;;3.76;77.93;96613.22;4980536;28;20073;-66
2022/01/08 11:33:03;;;;;;;4.35;1.00;;;;;;;3.71;77.78;96612.59;4994297;28;20038;-65
2022/01/08 11:35:31;;;;;;;4.93;1.05;;;;;;;3.77;78.22;96601.25;4984240;28;20046;-65
2022/01/08 11:37:57;;;;;;;3.03;1.13;;;;;;;3.45;80.10;96611.53;4994658;28;20072;-65
2022/01/08 11:40:25;;;;;;;1.52;1.00;;;;;;;3.52;79.85;96602.16;4991908;28;20223;-65
2022/01/08 11:42:51;;;;;;;2.65;1.60;;;;;;;3.37;78.46;96601.56;5002350;28;20088;-65
2022/01/08 11:45:24;;;;;;;1.75;1.20;;;;;;;3.30;78.81;96595.03;4993810;28;20407;-66
2022/01/08 11:47:52;;;;;;;1.92;1.00;;;;;;;3.19;79.58;96591.88;4990673;28;20042;-65
2022/01/08 11:50:23;;;;;;;3.17;1.17;;;;;;;3.32;79.78;96585.47;4985680;28;20066;-66
2022/01/08 11:53:46;;;;;;;3.42;1.33;;;;;;;3.14;79.91;96592.84;4973092;28;20043;-64
2022/01/08 11:56:32;;;;;;;3.05;1.00;;;;;;;2.91;81.29;96591.44;4889816;29;20047;-63
2022/01/08 11:59:04;;;;;;;2.33;1.42;;;;;;;3.25;79.94;96594.06;4903940;29;20627;-67
2022/01/08 12:01:30;;;;;;;2.60;1.15;;;;;;;3.23;80.19;96590.91;4974632;28;20053;-65